Grand Forks Air Force Base
KRDR : now visible

Airfield :











YOU CAN JOIN US ON...

 
LOGIN :

Register | Disclaimer

   EN    FR    IT 

 









Legend :    VFR   Marginal VFR   IFR   Intensive IFR   Very Intensive IFR
Visi :
Ceiling :
>= 8 km
>= 3000ft
5 to 8 km
1000 to 3000 ft
1500m to 5 km
500 to 1000 ft
800 to 1500m
200 to 500 ft
< 800m
< 200 ft
Symbols :   Thunderstorms  Fog  Heavy snow  Heavy precipitations  Wind > 20 kt







- Airport Elevation : 913 ft


KRDR - Grand Forks Air Force Base

CURRENT METAR :
  • 200856Z AUTO 15009KT 10SM CLR 17/17 A2991 RMK AO2 SLP131 T01700170 58011 $

EXPIRED METARs :
  • 200756Z AUTO 14008KT 10SM FEW150 17/17 A2994 RMK AO2 SLP142 T01690167 $
  • 200656Z AUTO 16007KT 10SM CLR 16/16 A2995 RMK AO2 SLP146 T01630163 $

TAF TAF KRDR
Valid from the 20 at 02:00 until the 21 at 08:00 UTC


200200Z 2002/2108 10006KT 9999 FEW110 QNH2994INS
BECMG 2008/2009 12009KT 9999 SCT008 BKN050 OVC100 QNH2992INS
TEMPO 2012/2015 8000 -SHRA BKN008
TEMPO 2018/2021 15020G35KT 6000 -TSRA BKN020CB OVC040
BECMG 2023/2024 15012G18KT 9999 SCT020 OVC030 QNH2965INS
TEMPO 2105/2108 21015G25KT 3200 -TSRA OVC030CB TX28/2020Z TN16/2008Z
No reported NOTAMs for that airfield.



MET'MAP, your aeronautical weather chart ! - Copyright ORBIFLY December 2007 - Disclaimer

ORBIFLY MET'MAP TEAM :

Programming & Development : Alexandra Zaïnal
Concept & Development : Baudouin d'Aumeries
Co-Development & Prog : Marc-Olivier Méhu
Technical & hardware support : Manuel Goepfert

Contact : metmap@orbifly.com




SOURCES & CREDITS :

   NOAA       Earth
Advisory